sensor_id;sensor_type;location;lat;lon;timestamp;P1;durP1;ratioP1;P2;durP2;ratioP2
78489;SDS011;67776;52.012;4.736;2023-03-23T00:02:19;9.18;;;3.17;;
78489;SDS011;67776;52.012;4.736;2023-03-23T00:04:54;7.93;;;3.25;;
78489;SDS011;67776;52.012;4.736;2023-03-23T00:07:20;7.83;;;3.20;;
78489;SDS011;67776;52.012;4.736;2023-03-23T00:09:49;8.30;;;3.17;;
78489;SDS011;67776;52.012;4.736;2023-03-23T00:12:26;9.70;;;3.05;;
78489;SDS011;67776;52.012;4.736;2023-03-23T00:15:02;8.38;;;3.22;;
78489;SDS011;67776;52.012;4.736;2023-03-23T00:17:30;8.35;;;3.25;;
78489;SDS011;67776;52.012;4.736;2023-03-23T00:20:00;10.35;;;3.42;;
78489;SDS011;67776;52.012;4.736;2023-03-23T00:22:28;8.20;;;3.17;;
78489;SDS011;67776;52.012;4.736;2023-03-23T00:24:54;8.50;;;3.30;;
78489;SDS011;67776;52.012;4.736;2023-03-23T00:27:20;8.67;;;2.70;;
78489;SDS011;67776;52.012;4.736;2023-03-23T00:29:50;7.40;;;3.13;;
78489;SDS011;67776;52.012;4.736;2023-03-23T00:32:20;7.32;;;2.70;;
78489;SDS011;67776;52.012;4.736;2023-03-23T00:34:54;8.05;;;2.72;;
78489;SDS011;67776;52.012;4.736;2023-03-23T00:37:20;8.43;;;2.70;;
78489;SDS011;67776;52.012;4.736;2023-03-23T00:39:47;8.48;;;2.90;;
78489;SDS011;67776;52.012;4.736;2023-03-23T00:42:15;9.38;;;2.60;;
78489;SDS011;67776;52.012;4.736;2023-03-23T00:44:41;7.90;;;2.78;;
78489;SDS011;67776;52.012;4.736;2023-03-23T00:47:08;7.73;;;2.60;;
78489;SDS011;67776;52.012;4.736;2023-03-23T00:49:35;5.60;;;2.42;;
78489;SDS011;67776;52.012;4.736;2023-03-23T00:52:03;6.20;;;2.83;;
78489;SDS011;67776;52.012;4.736;2023-03-23T00:54:30;7.53;;;2.83;;
78489;SDS011;67776;52.012;4.736;2023-03-23T00:56:55;7.30;;;2.53;;
78489;SDS011;67776;52.012;4.736;2023-03-23T00:59:21;8.13;;;2.80;;
78489;SDS011;67776;52.012;4.736;2023-03-23T01:01:47;7.55;;;2.38;;
78489;SDS011;67776;52.012;4.736;2023-03-23T01:04:13;6.90;;;2.53;;
78489;SDS011;67776;52.012;4.736;2023-03-23T01:06:40;6.47;;;2.50;;
78489;SDS011;67776;52.012;4.736;2023-03-23T01:09:13;7.25;;;2.42;;
78489;SDS011;67776;52.012;4.736;2023-03-23T01:11:40;5.90;;;2.40;;
78489;SDS011;67776;52.012;4.736;2023-03-23T01:14:07;8.82;;;2.80;;
78489;SDS011;67776;52.012;4.736;2023-03-23T01:16:32;6.53;;;2.38;;
78489;SDS011;67776;52.012;4.736;2023-03-23T01:18:59;6.27;;;2.33;;
78489;SDS011;67776;52.012;4.736;2023-03-23T01:21:24;6.55;;;2.20;;
78489;SDS011;67776;52.012;4.736;2023-03-23T01:23:50;7.00;;;2.60;;
78489;SDS011;67776;52.012;4.736;2023-03-23T01:26:17;7.53;;;2.75;;
78489;SDS011;67776;52.012;4.736;2023-03-23T01:28:45;6.47;;;2.60;;
78489;SDS011;67776;52.012;4.736;2023-03-23T01:31:12;6.37;;;2.40;;
78489;SDS011;67776;52.012;4.736;2023-03-23T01:33:42;6.32;;;2.10;;
78489;SDS011;67776;52.012;4.736;2023-03-23T01:36:11;6.85;;;2.20;;
78489;SDS011;67776;52.012;4.736;2023-03-23T01:38:41;5.60;;;2.35;;
78489;SDS011;67776;52.012;4.736;2023-03-23T01:41:11;6.40;;;2.38;;
78489;SDS011;67776;52.012;4.736;2023-03-23T01:43:52;6.20;;;2.13;;
78489;SDS011;67776;52.012;4.736;2023-03-23T01:46:18;5.95;;;2.58;;
78489;SDS011;67776;52.012;4.736;2023-03-23T01:48:47;7.07;;;2.10;;
78489;SDS011;67776;52.012;4.736;2023-03-23T01:51:14;5.30;;;2.08;;
78489;SDS011;67776;52.012;4.736;2023-03-23T01:54:02;6.53;;;2.50;;
78489;SDS011;67776;52.012;4.736;2023-03-23T01:56:31;6.00;;;2.37;;
78489;SDS011;67776;52.012;4.736;2023-03-23T01:59:07;5.90;;;2.30;;
78489;SDS011;67776;52.012;4.736;2023-03-23T02:01:34;5.15;;;2.10;;
78489;SDS011;67776;52.012;4.736;2023-03-23T02:04:03;6.30;;;2.33;;
78489;SDS011;67776;52.012;4.736;2023-03-23T02:06:29;7.00;;;2.45;;
78489;SDS011;67776;52.012;4.736;2023-03-23T02:08:54;6.23;;;2.40;;
78489;SDS011;67776;52.012;4.736;2023-03-23T02:11:21;7.85;;;2.45;;
78489;SDS011;67776;52.012;4.736;2023-03-23T02:13:48;6.63;;;2.27;;
78489;SDS011;67776;52.012;4.736;2023-03-23T02:36:36;7.13;;;2.33;;
78489;SDS011;67776;52.012;4.736;2023-03-23T02:38:57;7.68;;;2.63;;
78489;SDS011;67776;52.012;4.736;2023-03-23T02:41:31;8.50;;;2.20;;
78489;SDS011;67776;52.012;4.736;2023-03-23T02:44:03;6.93;;;2.20;;
78489;SDS011;67776;52.012;4.736;2023-03-23T02:46:30;7.00;;;2.17;;
78489;SDS011;67776;52.012;4.736;2023-03-23T02:48:56;7.10;;;2.25;;
78489;SDS011;67776;52.012;4.736;2023-03-23T02:51:24;7.50;;;2.10;;
78489;SDS011;67776;52.012;4.736;2023-03-23T02:53:50;7.13;;;2.40;;
78489;SDS011;67776;52.012;4.736;2023-03-23T02:56:18;6.72;;;2.15;;
78489;SDS011;67776;52.012;4.736;2023-03-23T02:58:44;8.80;;;2.40;;
78489;SDS011;67776;52.012;4.736;2023-03-23T03:03:50;7.68;;;2.17;;
78489;SDS011;67776;52.012;4.736;2023-03-23T03:09:12;6.93;;;1.90;;
78489;SDS011;67776;52.012;4.736;2023-03-23T03:11:42;7.53;;;2.47;;
78489;SDS011;67776;52.012;4.736;2023-03-23T03:14:17;8.73;;;2.50;;
78489;SDS011;67776;52.012;4.736;2023-03-23T03:17:22;6.88;;;2.17;;
78489;SDS011;67776;52.012;4.736;2023-03-23T03:19:49;8.68;;;2.50;;
78489;SDS011;67776;52.012;4.736;2023-03-23T03:22:19;6.68;;;2.38;;
78489;SDS011;67776;52.012;4.736;2023-03-23T03:24:46;8.73;;;2.47;;
78489;SDS011;67776;52.012;4.736;2023-03-23T03:27:13;8.02;;;2.45;;
78489;SDS011;67776;52.012;4.736;2023-03-23T03:29:42;7.85;;;2.42;;
78489;SDS011;67776;52.012;4.736;2023-03-23T03:32:14;6.13;;;2.13;;
78489;SDS011;67776;52.012;4.736;2023-03-23T03:34:43;8.02;;;2.28;;
78489;SDS011;67776;52.012;4.736;2023-03-23T03:37:09;7.27;;;2.30;;
78489;SDS011;67776;52.012;4.736;2023-03-23T03:39:37;6.28;;;2.30;;
78489;SDS011;67776;52.012;4.736;2023-03-23T03:42:06;6.03;;;2.08;;
78489;SDS011;67776;52.012;4.736;2023-03-23T03:44:32;7.18;;;2.13;;
78489;SDS011;67776;52.012;4.736;2023-03-23T03:46:58;7.17;;;2.10;;
78489;SDS011;67776;52.012;4.736;2023-03-23T03:49:24;5.47;;;1.73;;
78489;SDS011;67776;52.012;4.736;2023-03-23T03:51:50;7.82;;;2.25;;
78489;SDS011;67776;52.012;4.736;2023-03-23T03:54:15;5.50;;;2.10;;
78489;SDS011;67776;52.012;4.736;2023-03-23T03:56:41;4.93;;;1.57;;
78489;SDS011;67776;52.012;4.736;2023-03-23T03:59:07;5.90;;;1.70;;
78489;SDS011;67776;52.012;4.736;2023-03-23T04:01:34;8.35;;;1.77;;
78489;SDS011;67776;52.012;4.736;2023-03-23T04:04:00;9.37;;;1.80;;
78489;SDS011;67776;52.012;4.736;2023-03-23T04:06:25;7.35;;;1.77;;
78489;SDS011;67776;52.012;4.736;2023-03-23T04:08:53;6.53;;;2.00;;
78489;SDS011;67776;52.012;4.736;2023-03-23T04:11:20;9.43;;;1.92;;
78489;SDS011;67776;52.012;4.736;2023-03-23T04:13:45;5.25;;;1.58;;
78489;SDS011;67776;52.012;4.736;2023-03-23T04:16:11;8.93;;;1.77;;
78489;SDS011;67776;52.012;4.736;2023-03-23T04:18:36;6.63;;;1.70;;
78489;SDS011;67776;52.012;4.736;2023-03-23T04:21:02;8.10;;;1.80;;
78489;SDS011;67776;52.012;4.736;2023-03-23T04:23:29;8.38;;;1.80;;
78489;SDS011;67776;52.012;4.736;2023-03-23T04:25:56;7.22;;;1.52;;
78489;SDS011;67776;52.012;4.736;2023-03-23T04:28:23;6.00;;;1.55;;
78489;SDS011;67776;52.012;4.736;2023-03-23T04:30:52;8.43;;;2.03;;
78489;SDS011;67776;52.012;4.736;2023-03-23T04:33:20;7.63;;;1.50;;
78489;SDS011;67776;52.012;4.736;2023-03-23T04:35:47;10.68;;;1.70;;
78489;SDS011;67776;52.012;4.736;2023-03-23T04:38:16;9.23;;;2.10;;
78489;SDS011;67776;52.012;4.736;2023-03-23T04:40:42;8.77;;;1.70;;
78489;SDS011;67776;52.012;4.736;2023-03-23T04:43:10;10.85;;;2.10;;
78489;SDS011;67776;52.012;4.736;2023-03-23T04:45:37;9.93;;;2.13;;
78489;SDS011;67776;52.012;4.736;2023-03-23T04:48:06;9.35;;;1.90;;
78489;SDS011;67776;52.012;4.736;2023-03-23T04:50:32;8.02;;;1.83;;
78489;SDS011;67776;52.012;4.736;2023-03-23T04:52:59;8.80;;;2.13;;
78489;SDS011;67776;52.012;4.736;2023-03-23T04:55:29;12.25;;;2.00;;
78489;SDS011;67776;52.012;4.736;2023-03-23T04:57:56;13.43;;;2.58;;
78489;SDS011;67776;52.012;4.736;2023-03-23T05:00:26;11.43;;;2.60;;
78489;SDS011;67776;52.012;4.736;2023-03-23T05:02:52;7.47;;;1.97;;
78489;SDS011;67776;52.012;4.736;2023-03-23T05:05:18;10.48;;;2.28;;
78489;SDS011;67776;52.012;4.736;2023-03-23T05:07:45;11.55;;;2.75;;
78489;SDS011;67776;52.012;4.736;2023-03-23T05:10:11;11.37;;;3.00;;
78489;SDS011;67776;52.012;4.736;2023-03-23T05:12:38;10.10;;;2.40;;
78489;SDS011;67776;52.012;4.736;2023-03-23T05:15:04;11.63;;;2.17;;
78489;SDS011;67776;52.012;4.736;2023-03-23T05:17:31;10.73;;;2.53;;
78489;SDS011;67776;52.012;4.736;2023-03-23T05:19:57;11.48;;;2.63;;
78489;SDS011;67776;52.012;4.736;2023-03-23T05:22:23;15.07;;;2.85;;
78489;SDS011;67776;52.012;4.736;2023-03-23T05:24:51;11.10;;;2.83;;
78489;SDS011;67776;52.012;4.736;2023-03-23T05:27:17;10.23;;;2.80;;
78489;SDS011;67776;52.012;4.736;2023-03-23T05:29:44;12.70;;;2.90;;
78489;SDS011;67776;52.012;4.736;2023-03-23T05:32:13;14.25;;;3.15;;
78489;SDS011;67776;52.012;4.736;2023-03-23T05:34:39;14.15;;;3.25;;
78489;SDS011;67776;52.012;4.736;2023-03-23T05:37:05;15.00;;;3.10;;
78489;SDS011;67776;52.012;4.736;2023-03-23T05:39:30;10.43;;;3.03;;
78489;SDS011;67776;52.012;4.736;2023-03-23T05:41:57;9.77;;;3.10;;
78489;SDS011;67776;52.012;4.736;2023-03-23T05:44:23;8.87;;;2.50;;
78489;SDS011;67776;52.012;4.736;2023-03-23T05:46:49;10.18;;;3.22;;
78489;SDS011;67776;52.012;4.736;2023-03-23T05:49:16;13.75;;;2.90;;
78489;SDS011;67776;52.012;4.736;2023-03-23T05:51:43;18.17;;;3.10;;
78489;SDS011;67776;52.012;4.736;2023-03-23T05:54:10;11.80;;;3.00;;
78489;SDS011;67776;52.012;4.736;2023-03-23T05:56:36;11.25;;;3.28;;
78489;SDS011;67776;52.012;4.736;2023-03-23T05:59:02;14.40;;;3.50;;
78489;SDS011;67776;52.012;4.736;2023-03-23T06:01:27;13.60;;;3.30;;
78489;SDS011;67776;52.012;4.736;2023-03-23T06:03:53;10.83;;;3.20;;
78489;SDS011;67776;52.012;4.736;2023-03-23T06:06:22;14.70;;;4.20;;
78489;SDS011;67776;52.012;4.736;2023-03-23T06:08:47;11.32;;;3.30;;
78489;SDS011;67776;52.012;4.736;2023-03-23T06:11:15;11.00;;;3.10;;
78489;SDS011;67776;52.012;4.736;2023-03-23T06:13:40;13.13;;;3.30;;
78489;SDS011;67776;52.012;4.736;2023-03-23T06:16:06;11.80;;;3.30;;
78489;SDS011;67776;52.012;4.736;2023-03-23T06:18:32;13.30;;;3.17;;
78489;SDS011;67776;52.012;4.736;2023-03-23T06:20:58;12.18;;;3.00;;
78489;SDS011;67776;52.012;4.736;2023-03-23T06:23:24;11.85;;;3.58;;
78489;SDS011;67776;52.012;4.736;2023-03-23T06:25:49;11.23;;;3.10;;
78489;SDS011;67776;52.012;4.736;2023-03-23T06:28:19;9.27;;;3.03;;
78489;SDS011;67776;52.012;4.736;2023-03-23T06:30:44;12.60;;;3.90;;
78489;SDS011;67776;52.012;4.736;2023-03-23T06:33:10;14.57;;;3.97;;
78489;SDS011;67776;52.012;4.736;2023-03-23T06:35:36;11.53;;;3.83;;
78489;SDS011;67776;52.012;4.736;2023-03-23T06:38:01;11.48;;;3.40;;
78489;SDS011;67776;52.012;4.736;2023-03-23T06:40:28;16.20;;;3.97;;
78489;SDS011;67776;52.012;4.736;2023-03-23T06:42:53;13.50;;;3.33;;
78489;SDS011;67776;52.012;4.736;2023-03-23T06:45:19;14.00;;;4.18;;
78489;SDS011;67776;52.012;4.736;2023-03-23T06:47:45;13.87;;;3.50;;
78489;SDS011;67776;52.012;4.736;2023-03-23T06:50:13;14.13;;;3.15;;
78489;SDS011;67776;52.012;4.736;2023-03-23T06:52:40;12.85;;;3.40;;
78489;SDS011;67776;52.012;4.736;2023-03-23T06:55:10;15.10;;;3.10;;
78489;SDS011;67776;52.012;4.736;2023-03-23T06:57:36;13.50;;;3.00;;
78489;SDS011;67776;52.012;4.736;2023-03-23T07:00:01;12.60;;;2.87;;
78489;SDS011;67776;52.012;4.736;2023-03-23T07:02:29;11.85;;;2.80;;
78489;SDS011;67776;52.012;4.736;2023-03-23T07:04:55;12.07;;;2.87;;
78489;SDS011;67776;52.012;4.736;2023-03-23T07:07:21;10.52;;;2.67;;
78489;SDS011;67776;52.012;4.736;2023-03-23T07:09:46;11.73;;;3.27;;
78489;SDS011;67776;52.012;4.736;2023-03-23T07:12:12;10.17;;;3.10;;
78489;SDS011;67776;52.012;4.736;2023-03-23T07:14:39;9.63;;;2.88;;
78489;SDS011;67776;52.012;4.736;2023-03-23T07:17:04;12.13;;;2.73;;
78489;SDS011;67776;52.012;4.736;2023-03-23T07:19:30;12.05;;;2.80;;
78489;SDS011;67776;52.012;4.736;2023-03-23T07:21:56;13.82;;;2.55;;
78489;SDS011;67776;52.012;4.736;2023-03-23T07:24:22;11.87;;;2.77;;
78489;SDS011;67776;52.012;4.736;2023-03-23T07:26:47;11.60;;;2.30;;
78489;SDS011;67776;52.012;4.736;2023-03-23T07:29:13;9.77;;;2.33;;
78489;SDS011;67776;52.012;4.736;2023-03-23T07:31:38;12.13;;;2.80;;
78489;SDS011;67776;52.012;4.736;2023-03-23T07:34:04;9.20;;;2.23;;
78489;SDS011;67776;52.012;4.736;2023-03-23T07:36:29;8.73;;;2.43;;
78489;SDS011;67776;52.012;4.736;2023-03-23T07:38:55;11.40;;;2.50;;
78489;SDS011;67776;52.012;4.736;2023-03-23T07:41:22;10.50;;;2.53;;
78489;SDS011;67776;52.012;4.736;2023-03-23T07:43:47;10.27;;;2.20;;
78489;SDS011;67776;52.012;4.736;2023-03-23T07:46:13;9.52;;;2.30;;
78489;SDS011;67776;52.012;4.736;2023-03-23T07:48:38;8.80;;;2.10;;
78489;SDS011;67776;52.012;4.736;2023-03-23T07:51:05;19.15;;;2.90;;
78489;SDS011;67776;52.012;4.736;2023-03-23T07:53:30;9.67;;;2.40;;
78489;SDS011;67776;52.012;4.736;2023-03-23T07:55:57;8.65;;;2.30;;
78489;SDS011;67776;52.012;4.736;2023-03-23T07:58:22;9.68;;;2.78;;
78489;SDS011;67776;52.012;4.736;2023-03-23T08:00:48;9.50;;;2.47;;
78489;SDS011;67776;52.012;4.736;2023-03-23T08:03:14;9.93;;;2.45;;
78489;SDS011;67776;52.012;4.736;2023-03-23T08:05:40;9.37;;;2.17;;
78489;SDS011;67776;52.012;4.736;2023-03-23T08:08:07;9.77;;;2.72;;
78489;SDS011;67776;52.012;4.736;2023-03-23T08:10:33;9.80;;;2.72;;
78489;SDS011;67776;52.012;4.736;2023-03-23T08:12:59;9.23;;;3.00;;
78489;SDS011;67776;52.012;4.736;2023-03-23T08:15:24;11.73;;;3.22;;
78489;SDS011;67776;52.012;4.736;2023-03-23T08:17:51;12.52;;;2.97;;
78489;SDS011;67776;52.012;4.736;2023-03-23T08:20:17;11.23;;;2.50;;
78489;SDS011;67776;52.012;4.736;2023-03-23T08:22:44;10.93;;;3.22;;
78489;SDS011;67776;52.012;4.736;2023-03-23T08:25:14;8.30;;;2.30;;
78489;SDS011;67776;52.012;4.736;2023-03-23T08:27:42;11.05;;;3.30;;
78489;SDS011;67776;52.012;4.736;2023-03-23T08:30:08;10.25;;;2.28;;
78489;SDS011;67776;52.012;4.736;2023-03-23T08:32:35;10.47;;;2.53;;
78489;SDS011;67776;52.012;4.736;2023-03-23T08:35:01;11.68;;;3.10;;
78489;SDS011;67776;52.012;4.736;2023-03-23T08:37:26;9.77;;;2.60;;
78489;SDS011;67776;52.012;4.736;2023-03-23T08:39:53;13.10;;;2.80;;
78489;SDS011;67776;52.012;4.736;2023-03-23T08:42:19;9.70;;;2.58;;
78489;SDS011;67776;52.012;4.736;2023-03-23T08:44:44;9.13;;;2.47;;
78489;SDS011;67776;52.012;4.736;2023-03-23T08:47:10;13.60;;;3.05;;
78489;SDS011;67776;52.012;4.736;2023-03-23T08:49:35;14.03;;;3.03;;
78489;SDS011;67776;52.012;4.736;2023-03-23T08:52:01;12.23;;;3.20;;
78489;SDS011;67776;52.012;4.736;2023-03-23T08:54:27;14.10;;;2.90;;
78489;SDS011;67776;52.012;4.736;2023-03-23T08:56:55;12.30;;;2.85;;
78489;SDS011;67776;52.012;4.736;2023-03-23T08:59:20;17.23;;;3.53;;
78489;SDS011;67776;52.012;4.736;2023-03-23T09:01:46;10.17;;;2.70;;
78489;SDS011;67776;52.012;4.736;2023-03-23T09:04:12;10.85;;;2.35;;
78489;SDS011;67776;52.012;4.736;2023-03-23T09:06:39;13.75;;;2.90;;
78489;SDS011;67776;52.012;4.736;2023-03-23T09:09:04;14.43;;;2.27;;
78489;SDS011;67776;52.012;4.736;2023-03-23T09:11:34;11.98;;;2.38;;
78489;SDS011;67776;52.012;4.736;2023-03-23T09:14:01;13.93;;;2.00;;
78489;SDS011;67776;52.012;4.736;2023-03-23T09:16:27;11.45;;;2.17;;
78489;SDS011;67776;52.012;4.736;2023-03-23T09:18:53;11.40;;;2.30;;
78489;SDS011;67776;52.012;4.736;2023-03-23T09:21:18;13.57;;;2.42;;
78489;SDS011;67776;52.012;4.736;2023-03-23T09:23:44;10.57;;;2.00;;
78489;SDS011;67776;52.012;4.736;2023-03-23T09:26:10;11.32;;;2.00;;
78489;SDS011;67776;52.012;4.736;2023-03-23T09:28:36;10.33;;;2.17;;
78489;SDS011;67776;52.012;4.736;2023-03-23T09:31:01;15.77;;;2.80;;
78489;SDS011;67776;52.012;4.736;2023-03-23T09:33:26;8.02;;;2.17;;
78489;SDS011;67776;52.012;4.736;2023-03-23T09:35:57;11.73;;;2.10;;
78489;SDS011;67776;52.012;4.736;2023-03-23T09:38:23;10.32;;;2.50;;
78489;SDS011;67776;52.012;4.736;2023-03-23T09:40:53;10.00;;;2.27;;
78489;SDS011;67776;52.012;4.736;2023-03-23T09:48:35;13.95;;;2.45;;
78489;SDS011;67776;52.012;4.736;2023-03-23T09:53:50;10.57;;;2.20;;
78489;SDS011;67776;52.012;4.736;2023-03-23T09:56:18;14.00;;;2.40;;
78489;SDS011;67776;52.012;4.736;2023-03-23T10:01:34;11.40;;;2.35;;
78489;SDS011;67776;52.012;4.736;2023-03-23T10:07:08;10.27;;;2.37;;
78489;SDS011;67776;52.012;4.736;2023-03-23T10:09:36;12.45;;;2.35;;
78489;SDS011;67776;52.012;4.736;2023-03-23T10:17:18;11.13;;;1.90;;
78489;SDS011;67776;52.012;4.736;2023-03-23T10:22:32;14.63;;;2.40;;
78489;SDS011;67776;52.012;4.736;2023-03-23T10:25:03;14.65;;;2.20;;
78489;SDS011;67776;52.012;4.736;2023-03-23T10:27:44;14.02;;;2.47;;
78489;SDS011;67776;52.012;4.736;2023-03-23T10:30:17;14.40;;;2.60;;
78489;SDS011;67776;52.012;4.736;2023-03-23T10:32:55;15.27;;;2.80;;
78489;SDS011;67776;52.012;4.736;2023-03-23T10:35:28;12.88;;;2.40;;
78489;SDS011;67776;52.012;4.736;2023-03-23T10:41:15;11.40;;;1.92;;
78489;SDS011;67776;52.012;4.736;2023-03-23T10:43:43;11.25;;;2.40;;
78489;SDS011;67776;52.012;4.736;2023-03-23T10:46:56;9.97;;;2.63;;
78489;SDS011;67776;52.012;4.736;2023-03-23T10:49:01;12.02;;;2.50;;
78489;SDS011;67776;52.012;4.736;2023-03-23T10:51:32;13.88;;;2.38;;
78489;SDS011;67776;52.012;4.736;2023-03-23T10:54:01;9.27;;;2.00;;
78489;SDS011;67776;52.012;4.736;2023-03-23T10:56:34;8.88;;;1.95;;
78489;SDS011;67776;52.012;4.736;2023-03-23T11:02:00;9.40;;;2.05;;
78489;SDS011;67776;52.012;4.736;2023-03-23T11:04:28;9.70;;;2.55;;
78489;SDS011;67776;52.012;4.736;2023-03-23T11:06:58;12.02;;;2.22;;
78489;SDS011;67776;52.012;4.736;2023-03-23T11:09:39;13.68;;;2.15;;
78489;SDS011;67776;52.012;4.736;2023-03-23T11:12:17;11.27;;;2.70;;
78489;SDS011;67776;52.012;4.736;2023-03-23T11:14:44;13.32;;;2.80;;
78489;SDS011;67776;52.012;4.736;2023-03-23T11:17:25;13.50;;;2.42;;
78489;SDS011;67776;52.012;4.736;2023-03-23T11:19:52;10.82;;;2.08;;
78489;SDS011;67776;52.012;4.736;2023-03-23T11:22:31;12.88;;;2.75;;
78489;SDS011;67776;52.012;4.736;2023-03-23T11:25:01;13.13;;;2.47;;
78489;SDS011;67776;52.012;4.736;2023-03-23T11:27:28;12.10;;;2.53;;
78489;SDS011;67776;52.012;4.736;2023-03-23T11:29:56;21.30;;;3.20;;
78489;SDS011;67776;52.012;4.736;2023-03-23T11:32:26;13.10;;;2.08;;
78489;SDS011;67776;52.012;4.736;2023-03-23T11:34:58;11.53;;;2.10;;
78489;SDS011;67776;52.012;4.736;2023-03-23T11:37:35;12.80;;;2.28;;
78489;SDS011;67776;52.012;4.736;2023-03-23T11:45:34;9.93;;;2.17;;
78489;SDS011;67776;52.012;4.736;2023-03-23T11:48:26;12.17;;;2.30;;
78489;SDS011;67776;52.012;4.736;2023-03-23T11:50:58;7.45;;;2.13;;
78489;SDS011;67776;52.012;4.736;2023-03-23T11:58:52;9.02;;;1.85;;
78489;SDS011;67776;52.012;4.736;2023-03-23T12:04:13;11.13;;;2.33;;
78489;SDS011;67776;52.012;4.736;2023-03-23T12:09:43;8.13;;;1.92;;
78489;SDS011;67776;52.012;4.736;2023-03-23T12:15:24;8.40;;;1.80;;
78489;SDS011;67776;52.012;4.736;2023-03-23T12:23:25;7.53;;;1.88;;
78489;SDS011;67776;52.012;4.736;2023-03-23T12:31:15;11.30;;;1.80;;
78489;SDS011;67776;52.012;4.736;2023-03-23T12:34:03;6.85;;;1.60;;
78489;SDS011;67776;52.012;4.736;2023-03-23T12:42:08;9.10;;;1.70;;
78489;SDS011;67776;52.012;4.736;2023-03-23T12:47:54;10.38;;;2.00;;
78489;SDS011;67776;52.012;4.736;2023-03-23T12:50:35;11.73;;;2.00;;
78489;SDS011;67776;52.012;4.736;2023-03-23T12:53:29;7.80;;;1.98;;
78489;SDS011;67776;52.012;4.736;2023-03-23T12:58:30;9.02;;;1.90;;
78489;SDS011;67776;52.012;4.736;2023-03-23T13:01:03;8.63;;;1.90;;
78489;SDS011;67776;52.012;4.736;2023-03-23T13:06:32;8.75;;;2.00;;
78489;SDS011;67776;52.012;4.736;2023-03-23T13:09:03;10.07;;;1.80;;
78489;SDS011;67776;52.012;4.736;2023-03-23T13:11:43;7.13;;;1.48;;
78489;SDS011;67776;52.012;4.736;2023-03-23T13:26:00;6.90;;;1.67;;
78489;SDS011;67776;52.012;4.736;2023-03-23T13:28:31;10.07;;;1.90;;
78489;SDS011;67776;52.012;4.736;2023-03-23T13:31:03;10.23;;;1.67;;
78489;SDS011;67776;52.012;4.736;2023-03-23T13:33:37;11.68;;;2.08;;
78489;SDS011;67776;52.012;4.736;2023-03-23T13:36:11;9.20;;;2.40;;
78489;SDS011;67776;52.012;4.736;2023-03-23T13:38:38;11.02;;;1.65;;
78489;SDS011;67776;52.012;4.736;2023-03-23T13:41:13;12.38;;;2.20;;
78489;SDS011;67776;52.012;4.736;2023-03-23T13:43:41;7.93;;;1.90;;
78489;SDS011;67776;52.012;4.736;2023-03-23T13:48:50;13.10;;;2.47;;
78489;SDS011;67776;52.012;4.736;2023-03-23T13:56:53;11.80;;;2.37;;
78489;SDS011;67776;52.012;4.736;2023-03-23T14:01:53;13.57;;;2.30;;
78489;SDS011;67776;52.012;4.736;2023-03-23T14:04:20;11.25;;;2.15;;
78489;SDS011;67776;52.012;4.736;2023-03-23T14:06:47;10.95;;;2.08;;
78489;SDS011;67776;52.012;4.736;2023-03-23T14:12:14;11.05;;;2.08;;
78489;SDS011;67776;52.012;4.736;2023-03-23T14:14:47;7.30;;;1.80;;
78489;SDS011;67776;52.012;4.736;2023-03-23T14:19:46;12.40;;;2.08;;
78489;SDS011;67776;52.012;4.736;2023-03-23T14:22:18;8.57;;;1.67;;
78489;SDS011;67776;52.012;4.736;2023-03-23T14:24:46;10.98;;;3.00;;
78489;SDS011;67776;52.012;4.736;2023-03-23T14:27:13;10.23;;;1.97;;
78489;SDS011;67776;52.012;4.736;2023-03-23T14:29:40;9.85;;;1.70;;
78489;SDS011;67776;52.012;4.736;2023-03-23T14:32:07;9.27;;;1.80;;
78489;SDS011;67776;52.012;4.736;2023-03-23T14:34:37;11.55;;;2.08;;
78489;SDS011;67776;52.012;4.736;2023-03-23T14:37:02;10.13;;;1.87;;
78489;SDS011;67776;52.012;4.736;2023-03-23T14:39:29;8.75;;;1.75;;
78489;SDS011;67776;52.012;4.736;2023-03-23T14:42:00;8.93;;;1.80;;
78489;SDS011;67776;52.012;4.736;2023-03-23T14:44:32;9.33;;;1.93;;
78489;SDS011;67776;52.012;4.736;2023-03-23T14:47:03;11.43;;;1.83;;
78489;SDS011;67776;52.012;4.736;2023-03-23T14:49:37;9.88;;;1.85;;
78489;SDS011;67776;52.012;4.736;2023-03-23T14:52:10;10.35;;;2.13;;
78489;SDS011;67776;52.012;4.736;2023-03-23T14:54:41;8.52;;;1.90;;
78489;SDS011;67776;52.012;4.736;2023-03-23T14:57:18;11.20;;;1.80;;
78489;SDS011;67776;52.012;4.736;2023-03-23T14:59:49;13.32;;;2.13;;
78489;SDS011;67776;52.012;4.736;2023-03-23T15:05:05;9.07;;;1.70;;
78489;SDS011;67776;52.012;4.736;2023-03-23T15:07:38;8.60;;;1.80;;
78489;SDS011;67776;52.012;4.736;2023-03-23T15:10:13;11.88;;;2.03;;
78489;SDS011;67776;52.012;4.736;2023-03-23T15:12:45;7.72;;;2.08;;
78489;SDS011;67776;52.012;4.736;2023-03-23T15:15:20;10.35;;;2.08;;
78489;SDS011;67776;52.012;4.736;2023-03-23T15:17:49;9.37;;;1.90;;
78489;SDS011;67776;52.012;4.736;2023-03-23T15:20:21;13.05;;;2.80;;
78489;SDS011;67776;52.012;4.736;2023-03-23T15:22:50;9.45;;;2.08;;
78489;SDS011;67776;52.012;4.736;2023-03-23T15:27:54;14.63;;;2.50;;
78489;SDS011;67776;52.012;4.736;2023-03-23T15:32:47;8.27;;;1.93;;
78489;SDS011;67776;52.012;4.736;2023-03-23T15:35:15;12.13;;;2.15;;
78489;SDS011;67776;52.012;4.736;2023-03-23T15:37:43;6.63;;;1.70;;
78489;SDS011;67776;52.012;4.736;2023-03-23T15:40:23;7.45;;;1.63;;
78489;SDS011;67776;52.012;4.736;2023-03-23T15:42:51;10.57;;;2.28;;
78489;SDS011;67776;52.012;4.736;2023-03-23T15:45:53;15.18;;;3.67;;
78489;SDS011;67776;52.012;4.736;2023-03-23T15:48:27;7.88;;;2.05;;
78489;SDS011;67776;52.012;4.736;2023-03-23T15:50:53;12.63;;;2.77;;
78489;SDS011;67776;52.012;4.736;2023-03-23T15:53:30;10.20;;;2.28;;
78489;SDS011;67776;52.012;4.736;2023-03-23T15:56:02;9.40;;;2.10;;
78489;SDS011;67776;52.012;4.736;2023-03-23T15:58:29;9.53;;;2.13;;
78489;SDS011;67776;52.012;4.736;2023-03-23T16:00:55;12.07;;;2.13;;
78489;SDS011;67776;52.012;4.736;2023-03-23T16:03:25;11.63;;;2.45;;
78489;SDS011;67776;52.012;4.736;2023-03-23T16:05:56;12.73;;;2.22;;
78489;SDS011;67776;52.012;4.736;2023-03-23T16:08:24;12.55;;;2.40;;
78489;SDS011;67776;52.012;4.736;2023-03-23T16:10:50;14.87;;;2.10;;
78489;SDS011;67776;52.012;4.736;2023-03-23T16:13:15;12.57;;;2.10;;
78489;SDS011;67776;52.012;4.736;2023-03-23T16:15:42;13.68;;;2.00;;
78489;SDS011;67776;52.012;4.736;2023-03-23T16:18:10;9.73;;;1.90;;
78489;SDS011;67776;52.012;4.736;2023-03-23T16:20:41;16.85;;;2.20;;
78489;SDS011;67776;52.012;4.736;2023-03-23T16:23:07;11.43;;;2.08;;
78489;SDS011;67776;52.012;4.736;2023-03-23T16:25:32;11.67;;;2.10;;
78489;SDS011;67776;52.012;4.736;2023-03-23T16:27:57;14.33;;;2.00;;
78489;SDS011;67776;52.012;4.736;2023-03-23T16:30:24;13.23;;;2.33;;
78489;SDS011;67776;52.012;4.736;2023-03-23T16:32:51;14.77;;;2.38;;
78489;SDS011;67776;52.012;4.736;2023-03-23T16:35:17;15.37;;;2.60;;
78489;SDS011;67776;52.012;4.736;2023-03-23T16:37:47;12.98;;;2.17;;
78489;SDS011;67776;52.012;4.736;2023-03-23T16:40:14;10.82;;;1.85;;
78489;SDS011;67776;52.012;4.736;2023-03-23T16:42:40;11.98;;;2.35;;
78489;SDS011;67776;52.012;4.736;2023-03-23T16:45:06;11.90;;;2.07;;
78489;SDS011;67776;52.012;4.736;2023-03-23T16:47:31;12.00;;;2.03;;
78489;SDS011;67776;52.012;4.736;2023-03-23T16:49:57;9.60;;;1.88;;
78489;SDS011;67776;52.012;4.736;2023-03-23T16:52:22;11.40;;;2.10;;
78489;SDS011;67776;52.012;4.736;2023-03-23T16:54:48;11.47;;;2.00;;
78489;SDS011;67776;52.012;4.736;2023-03-23T16:57:13;13.27;;;2.25;;
78489;SDS011;67776;52.012;4.736;2023-03-23T16:59:39;14.23;;;2.03;;
78489;SDS011;67776;52.012;4.736;2023-03-23T17:02:04;12.13;;;2.30;;
78489;SDS011;67776;52.012;4.736;2023-03-23T17:04:30;12.63;;;2.27;;